HCC weather

Columbia County Airport
Hudson, New York, United States

Public forecast

Using degrees Fahrenheit for public forecast. Weather courtesy of forecast.io.

Closest aviation weather report (METAR) to Columbia County Airport

Closest report is Pittsfield Municipal Airport, 20.2 nm (37.5 km) ENE. Retrieved 2020/06/05 09:54 UTC (27 minutes ago):

KPSF 050954Z AUTO 36003KT 10SM CLR 18/17 A2988 RMK AO2 SLP091 T01830172

Closest aviation forecast (TAF) to Columbia County Airport

Closest forecast is Pittsfield Municipal Airport, 20.2 nm (37.5 km) ENE. Retrieved 2020/06/05 06:36 UTC (4 hours ago):

TAF KPSF 050535Z 0506/0606 21007KT P6SM VCSH SCT040 BKN100 FM051100 22006KT P6SM VCSH SCT020 BKN035 FM051600 22006KT P6SM VCSH BKN025 BKN045